Trawscoed, United Kingdom
Current Conditions -  °F | °C
As of 5:50 AM on Saturday 29 Nov 2014 (Local Time) from EGOP Reporting Station
Few Clouds Few Clouds  
Wind Chill:   Ceiling: Unl
Heat Index:   Visibility: 3mi
Dew Point:   Wind: 7mph
Humidity: 93%   Direction: 60°ENE
Pressure: 29.74"   Gusts: NA
Location:  52.35°N, 3.95°W
Report Text: EGOP 290550Z AUTO 06006KT 5000 // FEW120/// 08/07 Q1007
Loading
Personal Weather Stations






























Interactive Weather Map New forecast layout! Learn more

10-Day Weather Forecast

Advertisements
Track Severe Weather on mobile